Time;durP1;ratioP1;P1;durP2;ratioP2;P2;SDS_P1;SDS_P2;PMS_P1;PMS_P2;Temp;Humidity;BMP_temperature;BMP_pressure;BME280_temperature;BME280_humidity;BME280_pressure;Samples;Min_cycle;Max_cycle;Signal;HPM_P1;HPM_P2
2022/12/15 00:40:10;;;;;;;;;;;-3.60;99.90;;;;;;5113631;28;19965;-43
2022/12/15 00:42:35;;;;;;;;;;;-3.60;99.90;;;;;;5113257;28;20318;-44
2022/12/15 00:45:00;;;;;;;;;;;-3.70;99.90;;;;;;5093559;28;20267;-41
2022/12/15 00:47:26;;;;;;;;;;;-3.70;99.90;;;;;;5092942;28;20002;-42
2022/12/15 01:20:17;;;;;;;;;;;-3.80;99.90;;;;;;5093646;28;19954;-42
2022/12/15 01:22:45;;;;;;;;;;;-3.80;99.90;;;;;;5093521;28;19908;-43
2022/12/15 01:25:10;;;;;;;;;;;-3.80;99.90;;;;;;5113876;28;19908;-42
2022/12/15 01:27:36;;;;;;;;;;;-3.80;99.90;;;;;;5113839;28;19961;-41
2022/12/15 01:30:03;;;;;;;;;;;-3.70;99.90;;;;;;5113400;28;19908;-44
2022/12/15 01:32:28;;;;;;;;;;;-3.70;99.90;;;;;;5098821;28;19912;-42
2022/12/15 01:34:53;;;;;;;;;;;-3.80;99.90;;;;;;5111392;28;20002;-42
2022/12/15 01:37:19;;;;;;;;;;;-3.80;99.90;;;;;;5113673;28;19908;-42
2022/12/15 01:42:29;;;;;;;;;;;-3.90;99.90;;;;;;5113242;28;20011;-43
2022/12/15 01:45:15;;;;;;;;;;;-3.90;99.90;;;;;;5094480;28;20015;-43
2022/12/15 01:47:41;;;;;;;;;;;-3.90;99.90;;;;;;5082210;28;19954;-45
2022/12/15 01:50:12;;;;;;;;;;;-3.90;99.90;;;;;;5092494;28;20282;-42
2022/12/15 01:52:38;;;;;;;;;;;-3.90;99.90;;;;;;5093461;28;19954;-41
2022/12/15 01:55:04;;;;;;;;;;;-3.90;99.90;;;;;;5112471;28;20418;-44
2022/12/15 01:57:30;;;;;;;;;;;-4.00;99.90;;;;;;5103840;28;19960;-43
2022/12/15 01:59:57;;;;;;;;;;;-3.90;99.90;;;;;;5093340;28;19916;-42
2022/12/15 02:02:25;;;;;;;;;;;-3.90;99.90;;;;;;5093398;28;19915;-43
2022/12/15 02:04:55;;;;;;;;;;;-3.90;99.90;;;;;;5110137;28;19912;-41
2022/12/15 02:07:21;;;;;;;;;;;-4.00;99.90;;;;;;5113520;28;20366;-44
2022/12/15 02:09:48;;;;;;;;;;;-3.90;99.90;;;;;;5113390;28;19914;-42
2022/12/15 02:12:20;;;;;;;;;;;-3.90;99.90;;;;;;5110822;28;20274;-42
2022/12/15 02:15:04;;;;;;;;;;;-4.00;99.90;;;;;;5113502;28;20385;-42
2022/12/15 02:17:49;;;;;;;;;;;-4.00;99.90;;;;;;5112879;28;19966;-42
2022/12/15 02:20:34;;;;;;;;;;;-4.00;99.90;;;;;;5111726;28;19927;-40
2022/12/15 02:22:59;;;;;;;;;;;-4.10;99.90;;;;;;5093032;28;20282;-42
2022/12/15 02:25:52;;;;;;;;;;;-4.10;99.90;;;;;;5092171;28;19908;-42
2022/12/15 02:28:36;;;;;;;;;;;-4.20;99.90;;;;;;5092723;28;19912;-43
2022/12/15 02:31:50;;;;;;;;;;;-4.20;99.90;;;;;;5092303;28;19912;-43
2022/12/15 02:34:18;;;;;;;;;;;-4.40;99.90;;;;;;5085589;28;19916;-46
2022/12/15 02:36:47;;;;;;;;;;;-4.40;99.90;;;;;;5092983;28;19909;-45
2022/12/15 02:39:13;;;;;;;;;;;-4.40;99.90;;;;;;5110552;28;19911;-42
2022/12/15 02:41:43;;;;;;;;;;;-4.50;99.90;;;;;;5099995;28;19915;-44
2022/12/15 02:44:15;;;;;;;;;;;-4.40;99.90;;;;;;5092744;28;19998;-43
2022/12/15 02:46:56;;;;;;;;;;;-4.30;99.90;;;;;;5092438;28;19915;-42
2022/12/15 02:49:40;;;;;;;;;;;-4.40;99.90;;;;;;5109789;28;19916;-44
2022/12/15 02:52:08;;;;;;;;;;;-4.30;99.90;;;;;;5095665;28;20434;-42
2022/12/15 02:54:57;;;;;;;;;;;-4.30;99.90;;;;;;5096555;28;20007;-43
2022/12/15 02:57:45;;;;;;;;;;;-4.30;99.90;;;;;;5098518;28;19920;-42
2022/12/15 03:00:11;;;;;;;;;;;-4.40;99.90;;;;;;5075896;28;19922;-43
2022/12/15 03:02:42;;;;;;;;;;;-4.40;99.90;;;;;;5116860;28;20297;-43
2022/12/15 03:05:08;;;;;;;;;;;-4.40;99.90;;;;;;5116467;28;19907;-43
2022/12/15 03:07:34;;;;;;;;;;;-4.40;99.90;;;;;;5111353;28;20228;-45
2022/12/15 03:10:01;;;;;;;;;;;-4.40;99.90;;;;;;5095964;28;19909;-46
2022/12/15 03:12:26;;;;;;;;;;;-4.30;99.90;;;;;;5095747;28;19920;-42
2022/12/15 03:14:52;;;;;;;;;;;-4.20;99.90;;;;;;5095565;28;19961;-44
2022/12/15 03:17:17;;;;;;;;;;;-4.10;99.90;;;;;;5097194;28;19908;-44
2022/12/15 03:19:43;;;;;;;;;;;-4.00;99.90;;;;;;5116435;28;19907;-43
2022/12/15 03:22:10;;;;;;;;;;;-4.00;99.90;;;;;;5114932;28;20147;-43
2022/12/15 03:24:36;;;;;;;;;;;-4.10;99.90;;;;;;5116255;28;19908;-43
2022/12/15 03:27:02;;;;;;;;;;;-4.00;99.90;;;;;;5116194;28;20003;-43
2022/12/15 03:29:27;;;;;;;;;;;-4.00;99.90;;;;;;5095535;28;20355;-44
2022/12/15 03:31:53;;;;;;;;;;;-4.00;99.90;;;;;;5095826;28;19908;-44
2022/12/15 03:34:18;;;;;;;;;;;-3.90;99.90;;;;;;5105759;28;20569;-44
2022/12/15 03:36:44;;;;;;;;;;;-3.90;99.90;;;;;;5116126;28;19907;-43
2022/12/15 03:39:09;;;;;;;;;;;-4.00;99.90;;;;;;5098716;28;20354;-42
2022/12/15 03:41:35;;;;;;;;;;;-3.90;99.90;;;;;;5095048;28;19927;-43
2022/12/15 03:44:00;;;;;;;;;;;-3.90;99.90;;;;;;5095336;28;19934;-42
2022/12/15 03:46:26;;;;;;;;;;;-3.80;99.90;;;;;;5095386;28;19912;-46
2022/12/15 03:48:52;;;;;;;;;;;-3.80;99.90;;;;;;5104605;28;20374;-43
2022/12/15 03:51:18;;;;;;;;;;;-3.70;99.90;;;;;;5115632;28;19964;-41
2022/12/15 03:53:46;;;;;;;;;;;-3.70;99.90;;;;;;5115543;28;19916;-44
2022/12/15 03:56:12;;;;;;;;;;;-3.80;99.90;;;;;;5115011;28;19912;-41
2022/12/15 03:58:37;;;;;;;;;;;-3.70;99.90;;;;;;5103090;28;19916;-45
2022/12/15 04:01:21;;;;;;;;;;;-3.80;99.90;;;;;;5094521;28;19908;-43
2022/12/15 04:03:47;;;;;;;;;;;-3.80;99.90;;;;;;5094555;28;19916;-41
2022/12/15 04:06:12;;;;;;;;;;;-3.70;99.90;;;;;;5094961;28;19931;-41
2022/12/15 04:08:38;;;;;;;;;;;-3.70;99.90;;;;;;5106359;28;20290;-41
2022/12/15 04:11:03;;;;;;;;;;;-3.70;99.90;;;;;;5114836;28;19912;-44
2022/12/15 04:13:29;;;;;;;;;;;-3.60;99.90;;;;;;5100206;28;20018;-43
2022/12/15 04:15:54;;;;;;;;;;;-3.60;99.90;;;;;;5095048;28;19947;-42
2022/12/15 04:18:21;;;;;;;;;;;-3.60;99.90;;;;;;5092300;28;19908;-43
2022/12/15 04:20:46;;;;;;;;;;;-3.60;99.90;;;;;;5094659;28;19959;-41
2022/12/15 04:23:12;;;;;;;;;;;-3.60;99.90;;;;;;5094571;28;19912;-43
2022/12/15 05:31:50;;;;;;;;;;;-3.20;99.90;;;;;;5093062;28;19971;-43
2022/12/15 05:34:26;;;;;;;;;;;-3.20;99.90;;;;;;5092041;28;19916;-41
2022/12/15 05:36:52;;;;;;;;;;;-3.20;99.90;;;;;;5084071;28;19916;-42
2022/12/15 05:39:18;;;;;;;;;;;-3.20;99.90;;;;;;5072566;28;19924;-44
2022/12/15 05:41:44;;;;;;;;;;;-3.20;99.90;;;;;;5075506;28;19912;-41
2022/12/15 05:44:09;;;;;;;;;;;-3.20;99.90;;;;;;5092569;28;20443;-42
2022/12/15 05:46:35;;;;;;;;;;;-3.10;99.90;;;;;;5085248;28;20359;-43
2022/12/15 05:49:07;;;;;;;;;;;-3.10;99.90;;;;;;5090441;28;19913;-43
2022/12/15 05:51:36;;;;;;;;;;;-3.20;99.90;;;;;;5091082;28;19995;-42
2022/12/15 05:54:01;;;;;;;;;;;-3.10;99.90;;;;;;5086614;28;19995;-42
2022/12/15 05:56:27;;;;;;;;;;;-3.10;99.90;;;;;;5091201;28;19916;-43
2022/12/15 05:58:54;;;;;;;;;;;-3.20;99.90;;;;;;5092671;28;19912;-44
2022/12/15 06:01:19;;;;;;;;;;;-3.20;99.90;;;;;;5092119;28;19916;-42
2022/12/15 06:03:45;;;;;;;;;;;-3.30;99.90;;;;;;5090092;28;19917;-45
2022/12/15 06:06:11;;;;;;;;;;;-3.40;99.90;;;;;;5091284;28;19908;-43
2022/12/15 06:08:38;;;;;;;;;;;-3.40;99.90;;;;;;5092051;28;19961;-44
2022/12/15 06:11:03;;;;;;;;;;;-3.40;99.90;;;;;;5090480;28;19912;-44
2022/12/15 06:13:30;;;;;;;;;;;-3.50;99.90;;;;;;5099513;28;19927;-43
2022/12/15 06:15:56;;;;;;;;;;;-3.60;99.90;;;;;;5109879;28;19912;-43
2022/12/15 06:18:22;;;;;;;;;;;-3.60;99.90;;;;;;5110452;28;20007;-41
2022/12/15 06:20:47;;;;;;;;;;;-3.60;99.90;;;;;;5112342;28;19942;-46
2022/12/15 06:23:13;;;;;;;;;;;-3.60;99.90;;;;;;5113790;28;19908;-45
2022/12/15 06:25:39;;;;;;;;;;;-3.60;99.90;;;;;;5114790;28;19912;-43
2022/12/15 06:28:04;;;;;;;;;;;-3.70;99.90;;;;;;5113478;28;19991;-42
2022/12/15 06:30:30;;;;;;;;;;;-3.60;99.90;;;;;;5116436;28;19908;-45
2022/12/15 06:32:56;;;;;;;;;;;-3.60;99.90;;;;;;5117061;28;20002;-44
2022/12/15 06:35:21;;;;;;;;;;;-3.60;99.90;;;;;;5117030;28;19916;-43
2022/12/15 06:37:46;;;;;;;;;;;-3.60;99.90;;;;;;5116735;28;20543;-46
2022/12/15 06:40:12;;;;;;;;;;;-3.60;99.90;;;;;;5117013;28;20007;-46
2022/12/15 06:42:37;;;;;;;;;;;-3.60;99.90;;;;;;5113304;28;19916;-42
2022/12/15 06:45:03;;;;;;;;;;;-3.60;99.90;;;;;;5123647;27;20349;-43
2022/12/15 06:47:30;;;;;;;;;;;-3.60;99.90;;;;;;5137491;27;19952;-41
2022/12/15 06:49:55;;;;;;;;;;;-3.50;99.90;;;;;;5122342;27;20018;-43
2022/12/15 06:52:21;;;;;;;;;;;-3.50;99.90;;;;;;5116051;28;19986;-42
2022/12/15 06:54:46;;;;;;;;;;;-3.40;99.90;;;;;;5116196;28;19923;-41
2022/12/15 06:57:12;;;;;;;;;;;-3.40;99.90;;;;;;5116115;28;19930;-42
2022/12/15 06:59:38;;;;;;;;;;;-3.40;99.90;;;;;;5115404;28;19912;-42
2022/12/15 07:02:03;;;;;;;;;;;-3.40;99.90;;;;;;5130607;27;19960;-44
2022/12/15 07:04:31;;;;;;;;;;;-3.30;99.90;;;;;;5136766;27;19960;-44
2022/12/15 07:06:56;;;;;;;;;;;-3.30;99.90;;;;;;5135881;27;19915;-46
2022/12/15 07:09:24;;;;;;;;;;;-3.20;99.90;;;;;;5136414;27;19907;-42
2022/12/15 07:11:51;;;;;;;;;;;-3.10;99.90;;;;;;5136023;27;20281;-43
2022/12/15 07:14:16;;;;;;;;;;;-3.00;99.90;;;;;;5109713;27;19973;-43
2022/12/15 07:16:42;;;;;;;;;;;-2.90;99.90;;;;;;5102732;28;20324;-44
2022/12/15 07:19:10;;;;;;;;;;;-2.90;99.90;;;;;;5115595;28;20050;-42
2022/12/15 07:21:35;;;;;;;;;;;-2.80;99.90;;;;;;5108321;28;19913;-42
2022/12/15 07:24:01;;;;;;;;;;;-2.70;99.90;;;;;;5095568;28;19908;-43
2022/12/15 07:26:26;;;;;;;;;;;-2.60;99.90;;;;;;5094642;28;19959;-42
2022/12/15 07:28:52;;;;;;;;;;;-2.60;99.90;;;;;;5095260;28;19915;-44
2022/12/15 07:31:18;;;;;;;;;;;-2.50;99.90;;;;;;5109350;28;19919;-45
2022/12/15 07:33:43;;;;;;;;;;;-2.40;99.90;;;;;;5114819;28;19916;-45
2022/12/15 07:36:09;;;;;;;;;;;-2.40;99.90;;;;;;5115461;28;20388;-43
2022/12/15 07:38:35;;;;;;;;;;;-2.30;99.90;;;;;;5113179;28;19912;-43
2022/12/15 07:41:02;;;;;;;;;;;-2.30;99.90;;;;;;5097640;28;19913;-43
2022/12/15 07:43:28;;;;;;;;;;;-2.30;99.90;;;;;;5094986;28;19908;-42
2022/12/15 07:45:54;;;;;;;;;;;-2.30;99.90;;;;;;5100640;28;19912;-44
2022/12/15 07:48:19;;;;;;;;;;;-2.40;99.90;;;;;;5114379;28;19931;-43
2022/12/15 07:50:45;;;;;;;;;;;-2.40;99.90;;;;;;5113359;28;19919;-41
2022/12/15 07:53:10;;;;;;;;;;;-2.40;99.90;;;;;;5105662;27;19908;-41
2022/12/15 07:55:36;;;;;;;;;;;-2.40;99.90;;;;;;5134728;27;19923;-42
2022/12/15 07:58:02;;;;;;;;;;;-2.40;99.90;;;;;;5124999;27;20369;-45
2022/12/15 08:00:27;;;;;;;;;;;-2.40;99.90;;;;;;5114962;28;19912;-44
2022/12/15 08:02:53;;;;;;;;;;;-2.40;99.90;;;;;;5100590;28;20349;-43
2022/12/15 08:05:18;;;;;;;;;;;-2.40;99.90;;;;;;5094408;28;19914;-46
2022/12/15 08:07:44;;;;;;;;;;;-2.40;99.90;;;;;;5094515;28;19909;-42
2022/12/15 08:10:09;;;;;;;;;;;-2.40;99.90;;;;;;5098185;28;19916;-41
2022/12/15 08:12:35;;;;;;;;;;;-2.40;99.90;;;;;;5109397;28;19926;-44
2022/12/15 08:15:00;;;;;;;;;;;-2.40;99.90;;;;;;5083927;28;19920;-40
2022/12/15 08:17:25;;;;;;;;;;;-2.40;99.90;;;;;;5097770;28;19912;-42
2022/12/15 08:19:51;;;;;;;;;;;-2.40;99.90;;;;;;5114662;28;19930;-42
2022/12/15 08:22:16;;;;;;;;;;;-2.40;99.90;;;;;;5104543;28;19908;-43
2022/12/15 08:24:42;;;;;;;;;;;-2.40;99.90;;;;;;5093164;28;19933;-42
2022/12/15 08:27:07;;;;;;;;;;;-2.30;99.90;;;;;;5094049;28;19919;-42
2022/12/15 08:29:33;;;;;;;;;;;-2.30;99.90;;;;;;5099521;28;20355;-42
2022/12/15 08:31:59;;;;;;;;;;;-2.30;99.90;;;;;;5081024;28;19999;-43
2022/12/15 08:34:24;;;;;;;;;;;-2.40;99.90;;;;;;5073785;28;19925;-42
2022/12/15 08:36:50;;;;;;;;;;;-2.40;99.90;;;;;;5092717;28;19953;-42
2022/12/15 08:39:15;;;;;;;;;;;-2.30;99.90;;;;;;5083944;28;20379;-41
2022/12/15 08:41:41;;;;;;;;;;;-2.30;99.90;;;;;;5073626;28;19909;-42
2022/12/15 08:44:06;;;;;;;;;;;-2.20;99.90;;;;;;5072489;28;19915;-42
2022/12/15 08:46:33;;;;;;;;;;;-2.20;99.90;;;;;;5072937;28;19979;-45
2022/12/15 08:48:59;;;;;;;;;;;-2.10;99.90;;;;;;5080711;28;19916;-42
2022/12/15 08:51:26;;;;;;;;;;;-2.10;99.90;;;;;;5090825;28;19951;-45
2022/12/15 08:53:53;;;;;;;;;;;-2.10;99.90;;;;;;5113593;28;19916;-40
2022/12/15 08:56:19;;;;;;;;;;;-2.00;99.90;;;;;;5113882;28;19908;-41
2022/12/15 08:58:45;;;;;;;;;;;-2.00;99.90;;;;;;5104589;28;19959;-42
2022/12/15 09:01:19;;;;;;;;;;;-1.90;99.90;;;;;;5075119;28;20341;-43
2022/12/15 09:03:45;;;;;;;;;;;-1.90;99.90;;;;;;5093500;28;19912;-43
2022/12/15 09:06:12;;;;;;;;;;;-1.90;99.90;;;;;;5092473;28;19915;-42
2022/12/15 09:08:38;;;;;;;;;;;-1.80;99.90;;;;;;5086738;28;19935;-42
2022/12/15 09:11:04;;;;;;;;;;;-1.70;99.90;;;;;;5073046;28;20338;-42
2022/12/15 09:13:30;;;;;;;;;;;-1.70;99.90;;;;;;5071759;28;19921;-42
2022/12/15 09:15:56;;;;;;;;;;;-1.60;99.90;;;;;;5072855;28;19913;-43
2022/12/15 09:18:21;;;;;;;;;;;-1.50;99.90;;;;;;5074832;28;19912;-42
2022/12/15 09:20:47;;;;;;;;;;;-1.50;99.90;;;;;;5092256;28;20310;-42
2022/12/15 09:23:13;;;;;;;;;;;-1.40;99.90;;;;;;5092830;28;19908;-43
2022/12/15 09:25:38;;;;;;;;;;;-1.40;99.90;;;;;;5093235;28;19912;-42
2022/12/15 09:28:04;;;;;;;;;;;-1.30;99.90;;;;;;5092168;28;19915;-41
2022/12/15 09:30:29;;;;;;;;;;;-1.30;99.90;;;;;;5074066;28;19913;-43
2022/12/15 09:32:55;;;;;;;;;;;-1.20;99.90;;;;;;5072535;28;19916;-43
2022/12/15 09:35:20;;;;;;;;;;;-1.20;99.90;;;;;;5072229;28;20256;-42
2022/12/15 09:37:46;;;;;;;;;;;-1.20;99.90;;;;;;5072634;28;19943;-41
2022/12/15 09:40:12;;;;;;;;;;;-1.10;99.90;;;;;;5081685;28;20167;-41
2022/12/15 09:42:38;;;;;;;;;;;-1.10;99.90;;;;;;5088921;28;19913;-41
2022/12/15 09:45:12;;;;;;;;;;;-1.00;99.90;;;;;;5081602;28;19973;-41
2022/12/15 09:47:49;;;;;;;;;;;-1.00;99.90;;;;;;5093875;28;19966;-43
2022/12/15 09:50:16;;;;;;;;;;;-1.00;99.90;;;;;;5072812;28;20380;-41
2022/12/15 09:52:47;;;;;;;;;;;-0.90;99.90;;;;;;5072750;28;19951;-42
2022/12/15 09:55:18;;;;;;;;;;;-0.90;99.90;;;;;;5071687;28;19963;-40
2022/12/15 09:57:47;;;;;;;;;;;-0.80;99.90;;;;;;5091715;28;19912;-44
2022/12/15 10:00:24;;;;;;;;;;;-0.80;99.90;;;;;;5079610;28;19920;-42
2022/12/15 10:03:08;;;;;;;;;;;-0.70;99.90;;;;;;5076008;28;19908;-41
2022/12/15 10:05:33;;;;;;;;;;;-0.70;99.90;;;;;;5076508;28;20421;-40
2022/12/15 10:07:59;;;;;;;;;;;-0.60;99.90;;;;;;5077514;28;19913;-40
2022/12/15 10:10:43;;;;;;;;;;;-0.60;99.90;;;;;;5075704;28;19966;-41
2022/12/15 10:13:12;;;;;;;;;;;-0.50;99.90;;;;;;5076221;28;20363;-42
2022/12/15 10:15:44;;;;;;;;;;;-0.40;99.90;;;;;;5095049;28;19943;-42
2022/12/15 10:18:15;;;;;;;;;;;-0.40;99.90;;;;;;5087975;28;20010;-41
2022/12/15 10:20:40;;;;;;;;;;;-0.40;99.90;;;;;;5076293;28;19908;-40
2022/12/15 10:23:11;;;;;;;;;;;-0.30;99.90;;;;;;5075078;28;19955;-42
2022/12/15 10:25:36;;;;;;;;;;;-0.20;99.90;;;;;;5076054;28;19913;-42
2022/12/15 10:28:08;;;;;;;;;;;-0.10;99.90;;;;;;5081505;28;19958;-42
2022/12/15 10:30:34;;;;;;;;;;;-0.10;99.90;;;;;;5094094;28;19908;-43
2022/12/15 10:33:10;;;;;;;;;;;0.00;99.90;;;;;;5075630;28;19908;-42
2022/12/15 10:35:38;;;;;;;;;;;0.10;99.90;;;;;;5075882;28;20011;-42
2022/12/15 10:38:05;;;;;;;;;;;0.20;99.90;;;;;;5080502;28;19946;-42
2022/12/15 10:40:51;;;;;;;;;;;0.20;99.90;;;;;;5085929;28;20015;-42
2022/12/15 10:43:28;;;;;;;;;;;0.30;99.90;;;;;;5075103;28;19915;-43
2022/12/15 10:46:00;;;;;;;;;;;0.40;99.90;;;;;;5075883;28;20446;-42
2022/12/15 10:48:25;;;;;;;;;;;0.50;99.90;;;;;;5079793;28;19920;-42
2022/12/15 10:50:51;;;;;;;;;;;0.60;99.90;;;;;;5107528;28;19908;-42
2022/12/15 10:53:37;;;;;;;;;;;0.70;99.90;;;;;;5107380;28;19913;-41
2022/12/15 10:56:04;;;;;;;;;;;0.80;99.90;;;;;;5095911;28;20306;-42
2022/12/15 10:58:30;;;;;;;;;;;0.80;99.90;;;;;;5088715;28;20291;-41
2022/12/15 11:01:14;;;;;;;;;;;0.80;99.90;;;;;;5075977;28;19916;-42
2022/12/15 11:03:39;;;;;;;;;;;0.80;99.90;;;;;;5085973;28;20355;-41
2022/12/15 11:06:15;;;;;;;;;;;0.70;99.90;;;;;;5075255;28;19955;-43
2022/12/15 11:08:42;;;;;;;;;;;0.70;99.90;;;;;;5081892;28;19966;-42
2022/12/15 11:14:10;;;;;;;;;;;0.80;99.90;;;;;;5079784;27;19935;-44
2022/12/15 11:16:43;;;;;;;;;;;0.90;99.90;;;;;;5079505;28;20433;-40
2022/12/15 11:19:13;;;;;;;;;;;1.10;99.90;;;;;;5076329;28;19952;-41
2022/12/15 11:21:43;;;;;;;;;;;1.10;99.90;;;;;;5092038;28;20459;-42
2022/12/15 11:24:18;;;;;;;;;;;1.30;99.90;;;;;;5093984;28;20418;-41
2022/12/15 11:27:00;;;;;;;;;;;1.40;99.90;;;;;;5101421;28;19916;-42
2022/12/15 11:29:25;;;;;;;;;;;1.40;99.90;;;;;;5095207;28;19912;-42
2022/12/15 11:31:51;;;;;;;;;;;1.50;99.90;;;;;;5094841;28;19908;-40
2022/12/15 11:34:19;;;;;;;;;;;1.60;99.90;;;;;;5094144;28;20073;-42
2022/12/15 11:36:51;;;;;;;;;;;1.60;99.90;;;;;;5099403;28;19914;-40
2022/12/15 11:39:25;;;;;;;;;;;1.70;99.90;;;;;;5115403;28;19988;-42
2022/12/15 11:41:53;;;;;;;;;;;1.70;99.90;;;;;;5114585;28;19986;-39
2022/12/15 11:44:24;;;;;;;;;;;1.80;99.90;;;;;;5115329;28;20026;-42
2022/12/15 11:46:52;;;;;;;;;;;1.80;99.90;;;;;;5083129;28;20288;-42
2022/12/15 11:49:26;;;;;;;;;;;1.80;99.90;;;;;;5112420;28;19911;-41
2022/12/15 11:52:01;;;;;;;;;;;1.90;99.90;;;;;;5108478;28;19908;-41
2022/12/15 11:54:28;;;;;;;;;;;1.90;99.90;;;;;;5093683;28;19916;-43
2022/12/15 11:57:20;;;;;;;;;;;2.00;99.90;;;;;;5077530;28;19912;-42
2022/12/15 11:59:45;;;;;;;;;;;2.00;99.90;;;;;;5048122;28;19912;-40
2022/12/15 12:02:27;;;;;;;;;;;2.10;99.90;;;;;;5084089;28;20370;-42
2022/12/15 12:05:02;;;;;;;;;;;2.10;99.90;;;;;;5080223;28;19923;-40
2022/12/15 12:07:35;;;;;;;;;;;2.20;99.90;;;;;;5090373;28;20389;-40
2022/12/15 12:10:06;;;;;;;;;;;2.20;99.90;;;;;;5093429;28;19909;-40
2022/12/15 12:12:37;;;;;;;;;;;2.30;99.90;;;;;;5083542;28;19921;-45
2022/12/15 12:15:12;;;;;;;;;;;2.30;99.90;;;;;;5074180;28;19931;-40
2022/12/15 12:17:50;;;;;;;;;;;2.30;99.90;;;;;;5074326;28;19909;-42
2022/12/15 12:20:21;;;;;;;;;;;2.40;99.90;;;;;;5073257;28;19909;-42
2022/12/15 12:22:52;;;;;;;;;;;2.40;99.90;;;;;;5082292;28;20039;-40
2022/12/15 12:25:19;;;;;;;;;;;2.50;99.90;;;;;;5074240;28;19916;-42
2022/12/15 12:27:56;;;;;;;;;;;2.60;99.90;;;;;;5074498;28;19908;-40
2022/12/15 12:30:24;;;;;;;;;;;2.70;99.90;;;;;;5073913;28;19916;-40
2022/12/15 12:33:09;;;;;;;;;;;2.80;99.90;;;;;;5086985;28;19912;-40
2022/12/15 12:35:45;;;;;;;;;;;2.90;99.90;;;;;;5093894;28;19916;-44
2022/12/15 12:38:11;;;;;;;;;;;2.90;99.90;;;;;;5093042;28;19962;-44
2022/12/15 12:40:39;;;;;;;;;;;3.00;99.90;;;;;;5085112;28;19916;-39
2022/12/15 12:43:05;;;;;;;;;;;3.00;99.90;;;;;;5087130;28;19912;-41
2022/12/15 12:45:43;;;;;;;;;;;3.00;99.90;;;;;;5073953;28;19913;-42
2022/12/15 12:48:17;;;;;;;;;;;2.90;99.90;;;;;;5073299;28;19990;-41
2022/12/15 12:50:42;;;;;;;;;;;3.00;99.90;;;;;;5072374;28;19908;-44
2022/12/15 12:53:22;;;;;;;;;;;3.00;99.90;;;;;;5087587;28;19936;-42
2022/12/15 12:55:48;;;;;;;;;;;3.00;99.90;;;;;;5093920;28;19919;-40
2022/12/15 12:58:36;;;;;;;;;;;3.00;99.90;;;;;;5078859;28;19995;-39
2022/12/15 13:01:11;;;;;;;;;;;3.10;99.90;;;;;;5084221;28;19919;-39
2022/12/15 13:03:37;;;;;;;;;;;3.20;99.90;;;;;;5088600;28;19913;-41
2022/12/15 13:06:18;;;;;;;;;;;3.20;99.90;;;;;;5085953;28;19930;-41
2022/12/15 13:08:45;;;;;;;;;;;3.20;99.90;;;;;;5091408;28;19912;-40
2022/12/15 13:11:29;;;;;;;;;;;3.30;99.90;;;;;;5077520;28;20275;-40
2022/12/15 13:13:55;;;;;;;;;;;3.30;99.90;;;;;;5084403;28;19920;-41
2022/12/15 13:16:20;;;;;;;;;;;3.30;99.90;;;;;;5107133;28;19912;-39
2022/12/15 13:18:56;;;;;;;;;;;3.30;99.90;;;;;;5104870;28;19912;-40
2022/12/15 13:21:43;;;;;;;;;;;3.20;99.90;;;;;;5080138;28;19915;-41
2022/12/15 13:24:24;;;;;;;;;;;3.20;99.90;;;;;;5082572;28;19999;-42
2022/12/15 13:26:49;;;;;;;;;;;3.10;99.90;;;;;;5073945;28;19917;-41
2022/12/15 13:29:17;;;;;;;;;;;3.10;99.90;;;;;;5075538;28;20294;-40
2022/12/15 13:31:46;;;;;;;;;;;3.10;99.90;;;;;;5092640;28;19916;-42
2022/12/15 13:34:13;;;;;;;;;;;3.20;99.90;;;;;;5092171;28;19966;-39
2022/12/15 13:36:39;;;;;;;;;;;3.40;99.90;;;;;;5093018;28;19919;-42
2022/12/15 13:39:13;;;;;;;;;;;3.60;99.90;;;;;;5090644;28;19912;-45
2022/12/15 13:41:43;;;;;;;;;;;3.80;99.90;;;;;;5087154;28;19915;-41
2022/12/15 13:44:20;;;;;;;;;;;4.00;99.90;;;;;;5092831;28;20034;-43
2022/12/15 13:46:46;;;;;;;;;;;4.20;99.90;;;;;;5092098;28;19942;-41
2022/12/15 13:49:30;;;;;;;;;;;4.30;99.90;;;;;;5091189;28;19995;-40
2022/12/15 13:52:14;;;;;;;;;;;4.30;99.90;;;;;;5072604;28;19913;-41
2022/12/15 13:54:41;;;;;;;;;;;4.30;99.90;;;;;;5071828;28;19921;-42
2022/12/15 13:57:18;;;;;;;;;;;4.10;99.90;;;;;;5072566;28;19998;-40
2022/12/15 13:59:45;;;;;;;;;;;4.20;99.90;;;;;;5076365;28;19908;-41
2022/12/15 14:02:23;;;;;;;;;;;4.30;99.90;;;;;;5091500;28;19923;-42
2022/12/15 14:05:04;;;;;;;;;;;4.40;99.90;;;;;;5092749;28;20049;-43
2022/12/15 14:07:29;;;;;;;;;;;4.50;99.90;;;;;;5091984;28;19915;-39
2022/12/15 14:09:55;;;;;;;;;;;4.70;99.90;;;;;;5090748;28;19908;-43
2022/12/15 14:12:20;;;;;;;;;;;4.70;99.90;;;;;;5092144;28;19927;-43
2022/12/15 14:14:48;;;;;;;;;;;4.60;99.90;;;;;;5091828;28;20007;-40
2022/12/15 14:17:15;;;;;;;;;;;4.60;99.90;;;;;;5092504;28;19908;-40
2022/12/15 14:19:41;;;;;;;;;;;4.70;99.90;;;;;;5077821;28;20295;-40
2022/12/15 14:22:23;;;;;;;;;;;4.70;99.90;;;;;;5071468;28;19915;-41
2022/12/15 14:24:49;;;;;;;;;;;4.70;99.90;;;;;;5071965;28;19995;-40
2022/12/15 14:27:26;;;;;;;;;;;4.60;99.90;;;;;;5072137;28;19908;-41
2022/12/15 14:30:18;;;;;;;;;;;4.30;99.90;;;;;;5072405;28;20031;-39
2022/12/15 14:32:44;;;;;;;;;;;3.90;99.90;;;;;;5067767;28;19914;-39
2022/12/15 14:35:16;;;;;;;;;;;3.50;99.90;;;;;;5071991;28;19916;-39
2022/12/15 14:37:42;;;;;;;;;;;3.30;99.90;;;;;;5071369;28;19937;-39
2022/12/15 14:40:12;;;;;;;;;;;3.00;99.90;;;;;;5089445;28;20423;-39
2022/12/15 14:42:38;;;;;;;;;;;2.80;99.90;;;;;;5091535;28;20075;-40
2022/12/15 14:45:04;;;;;;;;;;;2.60;99.90;;;;;;5095386;28;19915;-40
2022/12/15 14:47:32;;;;;;;;;;;2.50;99.90;;;;;;5096147;28;19908;-39
2022/12/15 14:50:00;;;;;;;;;;;2.30;99.90;;;;;;5078600;28;19999;-40
2022/12/15 14:52:38;;;;;;;;;;;2.10;99.90;;;;;;5076022;28;20001;-39
2022/12/15 14:55:24;;;;;;;;;;;2.00;99.90;;;;;;5075587;28;20001;-40
2022/12/15 14:57:51;;;;;;;;;;;1.90;99.90;;;;;;5073889;28;19953;-41
2022/12/15 15:00:24;;;;;;;;;;;1.70;99.90;;;;;;5076450;28;19912;-39
2022/12/15 15:03:10;;;;;;;;;;;1.60;99.90;;;;;;5075508;28;19909;-39
2022/12/15 15:05:37;;;;;;;;;;;1.50;99.90;;;;;;5074609;28;20284;-40
2022/12/15 15:08:03;;;;;;;;;;;1.40;99.90;;;;;;5075233;28;20313;-39
2022/12/15 15:10:29;;;;;;;;;;;1.30;99.90;;;;;;5076176;28;19920;-39
2022/12/15 15:12:55;;;;;;;;;;;1.20;99.90;;;;;;5084013;28;19920;-40
2022/12/15 15:15:23;;;;;;;;;;;1.10;99.90;;;;;;5095473;28;19916;-42
2022/12/15 15:17:49;;;;;;;;;;;1.10;99.90;;;;;;5095729;28;19916;-39
2022/12/15 15:20:20;;;;;;;;;;;0.90;99.90;;;;;;5095510;28;19954;-40
2022/12/15 15:22:46;;;;;;;;;;;0.90;99.90;;;;;;5095493;28;19915;-39
2022/12/15 15:25:38;;;;;;;;;;;0.80;99.90;;;;;;5094280;28;19995;-40
2022/12/15 15:28:16;;;;;;;;;;;0.70;99.90;;;;;;5101414;28;19911;-40
2022/12/15 15:30:47;;;;;;;;;;;0.60;99.90;;;;;;5115810;28;19943;-40
2022/12/15 15:33:13;;;;;;;;;;;0.60;99.90;;;;;;5112550;28;20390;-39
2022/12/15 15:35:42;;;;;;;;;;;0.50;99.90;;;;;;5115384;28;19920;-42
2022/12/15 15:38:19;;;;;;;;;;;0.40;99.90;;;;;;5104195;28;19913;-39
2022/12/15 15:40:48;;;;;;;;;;;0.40;99.90;;;;;;5094417;28;19954;-40
2022/12/15 15:43:14;;;;;;;;;;;0.30;99.90;;;;;;5095007;28;19908;-41
2022/12/15 15:45:40;;;;;;;;;;;0.30;99.90;;;;;;5095013;28;19965;-42
2022/12/15 15:48:07;;;;;;;;;;;0.30;99.90;;;;;;5104424;28;19973;-41
2022/12/15 15:50:32;;;;;;;;;;;0.20;99.90;;;;;;5115251;28;19939;-41
2022/12/15 15:52:58;;;;;;;;;;;0.20;99.90;;;;;;5114396;28;19955;-39
2022/12/15 15:55:26;;;;;;;;;;;0.20;99.90;;;;;;5115024;28;19916;-39
2022/12/15 15:57:52;;;;;;;;;;;0.10;99.90;;;;;;5113405;28;19911;-40
2022/12/15 16:00:20;;;;;;;;;;;0.10;99.90;;;;;;5114296;28;19933;-40
2022/12/15 16:02:46;;;;;;;;;;;0.10;99.90;;;;;;5115017;28;19953;-41
2022/12/15 16:05:12;;;;;;;;;;;0.00;99.90;;;;;;5114844;28;19912;-41
2022/12/15 16:07:38;;;;;;;;;;;0.00;99.90;;;;;;5107946;28;19912;-40
2022/12/15 16:10:05;;;;;;;;;;;0.00;99.90;;;;;;5094449;28;19908;-41
2022/12/15 16:12:51;;;;;;;;;;;0.00;99.90;;;;;;5094291;28;20006;-39
2022/12/15 16:15:27;;;;;;;;;;;0.00;99.90;;;;;;5093504;28;20011;-42
2022/12/15 16:17:53;;;;;;;;;;;-0.10;99.90;;;;;;5095239;28;19912;-42
2022/12/15 16:20:20;;;;;;;;;;;-0.10;99.90;;;;;;5096088;28;19919;-40
2022/12/15 16:22:47;;;;;;;;;;;0.00;99.90;;;;;;5092909;28;20003;-41
2022/12/15 16:25:16;;;;;;;;;;;-0.10;99.90;;;;;;5093928;27;19955;-39
2022/12/15 16:27:41;;;;;;;;;;;-0.10;99.90;;;;;;5104199;27;19950;-41
2022/12/15 16:30:17;;;;;;;;;;;-0.20;99.90;;;;;;5092895;28;19952;-41
2022/12/15 16:32:43;;;;;;;;;;;-0.20;99.90;;;;;;5093963;28;20291;-39
2022/12/15 16:35:09;;;;;;;;;;;-0.20;99.90;;;;;;5094083;28;20381;-39
2022/12/15 16:37:35;;;;;;;;;;;-0.30;99.90;;;;;;5105887;28;19920;-39
2022/12/15 16:40:00;;;;;;;;;;;-0.30;99.90;;;;;;5093918;28;19912;-43
2022/12/15 16:42:26;;;;;;;;;;;-0.30;99.90;;;;;;5104868;28;19912;-39
2022/12/15 16:44:51;;;;;;;;;;;-0.30;99.90;;;;;;5105249;28;20263;-39
2022/12/15 16:47:17;;;;;;;;;;;-0.40;99.90;;;;;;5099836;28;19941;-39
2022/12/15 16:49:44;;;;;;;;;;;-0.40;99.90;;;;;;5111621;28;19914;-40
2022/12/15 16:52:19;;;;;;;;;;;-0.40;99.90;;;;;;5110368;28;19916;-41
2022/12/15 16:54:48;;;;;;;;;;;-0.40;99.90;;;;;;5102418;28;20006;-39